sensor_id;sensor_type;location;lat;lon;timestamp;pressure;altitude;pressure_sealevel;temperature;humidity
65756;BME280;52489;47.502;18.940;2022-09-01T00:00:47;98161.19;;;16.30;81.44
65756;BME280;52489;47.502;18.940;2022-09-01T00:01:52;98161.06;;;16.38;81.10
65756;BME280;52489;47.502;18.940;2022-09-01T00:02:55;98158.97;;;16.32;78.62
65756;BME280;52489;47.502;18.940;2022-09-01T00:03:58;98167.66;;;16.20;80.27
65756;BME280;52489;47.502;18.940;2022-09-01T00:05:05;98168.28;;;16.05;80.47
65756;BME280;52489;47.502;18.940;2022-09-01T00:06:09;98171.00;;;15.84;82.08
65756;BME280;52489;47.502;18.940;2022-09-01T00:07:13;98168.50;;;16.00;82.55
65756;BME280;52489;47.502;18.940;2022-09-01T00:08:16;98172.69;;;16.01;82.45
65756;BME280;52489;47.502;18.940;2022-09-01T00:09:21;98170.97;;;16.17;80.85
65756;BME280;52489;47.502;18.940;2022-09-01T00:10:24;98168.97;;;16.14;81.38
65756;BME280;52489;47.502;18.940;2022-09-01T00:11:29;98177.97;;;15.88;81.42
65756;BME280;52489;47.502;18.940;2022-09-01T00:12:33;98169.38;;;15.91;81.03
65756;BME280;52489;47.502;18.940;2022-09-01T00:13:36;98172.13;;;15.95;80.88
65756;BME280;52489;47.502;18.940;2022-09-01T00:14:40;98170.47;;;15.90;81.81
65756;BME280;52489;47.502;18.940;2022-09-01T00:15:48;98177.72;;;15.93;82.10
65756;BME280;52489;47.502;18.940;2022-09-01T00:16:52;98177.56;;;16.11;80.33
65756;BME280;52489;47.502;18.940;2022-09-01T00:17:55;98172.03;;;15.91;81.46
65756;BME280;52489;47.502;18.940;2022-09-01T00:19:00;98176.50;;;15.91;81.73
65756;BME280;52489;47.502;18.940;2022-09-01T00:20:04;98175.81;;;15.82;81.61
65756;BME280;52489;47.502;18.940;2022-09-01T00:21:09;98176.59;;;15.82;82.08
65756;BME280;52489;47.502;18.940;2022-09-01T00:22:12;98175.81;;;15.82;80.12
65756;BME280;52489;47.502;18.940;2022-09-01T00:23:15;98182.41;;;15.76;79.81
65756;BME280;52489;47.502;18.940;2022-09-01T00:24:18;98185.81;;;15.76;81.13
65756;BME280;52489;47.502;18.940;2022-09-01T00:25:22;98186.03;;;15.71;80.97
65756;BME280;52489;47.502;18.940;2022-09-01T00:26:26;98189.38;;;15.80;82.36
65756;BME280;52489;47.502;18.940;2022-09-01T00:27:33;98182.13;;;15.89;81.46
65756;BME280;52489;47.502;18.940;2022-09-01T00:28:36;98191.34;;;15.83;82.52
65756;BME280;52489;47.502;18.940;2022-09-01T00:29:40;98192.59;;;15.86;82.52
65756;BME280;52489;47.502;18.940;2022-09-01T00:30:45;98193.00;;;15.67;81.98
65756;BME280;52489;47.502;18.940;2022-09-01T00:31:49;98192.00;;;15.59;82.63
65756;BME280;52489;47.502;18.940;2022-09-01T00:32:52;98201.25;;;15.74;84.81
65756;BME280;52489;47.502;18.940;2022-09-01T00:33:55;98198.19;;;15.84;84.99
65756;BME280;52489;47.502;18.940;2022-09-01T00:35:01;98199.28;;;15.62;84.52
65756;BME280;52489;47.502;18.940;2022-09-01T00:36:04;98200.66;;;15.68;84.78
65756;BME280;52489;47.502;18.940;2022-09-01T00:37:07;98198.19;;;15.84;83.72
65756;BME280;52489;47.502;18.940;2022-09-01T00:38:10;98197.09;;;15.85;85.49
65756;BME280;52489;47.502;18.940;2022-09-01T00:39:14;98202.63;;;15.92;84.55
65756;BME280;52489;47.502;18.940;2022-09-01T00:40:17;98204.91;;;15.94;84.02
65756;BME280;52489;47.502;18.940;2022-09-01T00:41:23;98204.84;;;15.69;84.59
65756;BME280;52489;47.502;18.940;2022-09-01T00:42:26;98199.00;;;15.55;84.91
65756;BME280;52489;47.502;18.940;2022-09-01T00:43:54;98202.72;;;15.42;87.37
65756;BME280;52489;47.502;18.940;2022-09-01T00:44:58;98200.50;;;15.65;86.12
65756;BME280;52489;47.502;18.940;2022-09-01T00:46:03;98202.78;;;15.75;85.07
65756;BME280;52489;47.502;18.940;2022-09-01T00:47:06;98194.87;;;15.66;86.49
65756;BME280;52489;47.502;18.940;2022-09-01T00:48:10;98196.06;;;15.78;85.73
65756;BME280;52489;47.502;18.940;2022-09-01T00:49:28;98194.00;;;15.83;86.46
65756;BME280;52489;47.502;18.940;2022-09-01T00:50:36;98188.84;;;15.87;85.49
65756;BME280;52489;47.502;18.940;2022-09-01T00:51:50;98190.38;;;15.67;87.41
65756;BME280;52489;47.502;18.940;2022-09-01T00:52:54;98191.62;;;15.69;86.57
65756;BME280;52489;47.502;18.940;2022-09-01T00:53:58;98190.56;;;15.71;85.79
65756;BME280;52489;47.502;18.940;2022-09-01T00:55:09;98192.31;;;15.79;85.32
65756;BME280;52489;47.502;18.940;2022-09-01T00:56:13;98193.75;;;15.76;85.99
65756;BME280;52489;47.502;18.940;2022-09-01T00:57:16;98192.13;;;15.63;87.27
65756;BME280;52489;47.502;18.940;2022-09-01T00:58:19;98198.19;;;15.63;86.92
65756;BME280;52489;47.502;18.940;2022-09-01T00:59:24;98191.47;;;15.66;86.80
65756;BME280;52489;47.502;18.940;2022-09-01T01:00:30;98205.94;;;15.68;86.64
65756;BME280;52489;47.502;18.940;2022-09-01T01:01:34;98206.28;;;15.79;85.88
65756;BME280;52489;47.502;18.940;2022-09-01T01:02:39;98205.34;;;15.84;85.28
65756;BME280;52489;47.502;18.940;2022-09-01T01:03:43;98208.81;;;15.76;85.74
65756;BME280;52489;47.502;18.940;2022-09-01T01:04:48;98205.97;;;15.81;85.87
65756;BME280;52489;47.502;18.940;2022-09-01T01:05:57;98205.03;;;15.85;85.62
65756;BME280;52489;47.502;18.940;2022-09-01T01:07:03;98195.88;;;15.83;85.51
65756;BME280;52489;47.502;18.940;2022-09-01T01:08:08;98208.94;;;15.79;86.01
65756;BME280;52489;47.502;18.940;2022-09-01T01:09:13;98205.53;;;15.79;86.05
65756;BME280;52489;47.502;18.940;2022-09-01T01:10:18;98200.47;;;15.74;86.73
65756;BME280;52489;47.502;18.940;2022-09-01T01:11:29;98200.69;;;15.81;86.09
65756;BME280;52489;47.502;18.940;2022-09-01T01:12:33;98202.34;;;15.64;87.39
65756;BME280;52489;47.502;18.940;2022-09-01T01:13:51;98199.09;;;15.46;86.04
65756;BME280;52489;47.502;18.940;2022-09-01T01:14:56;98198.97;;;15.43;86.83
65756;BME280;52489;47.502;18.940;2022-09-01T01:15:59;98194.25;;;15.48;86.30
65756;BME280;52489;47.502;18.940;2022-09-01T01:17:02;98202.87;;;15.58;86.38
65756;BME280;52489;47.502;18.940;2022-09-01T01:18:05;98193.09;;;15.37;85.36
65756;BME280;52489;47.502;18.940;2022-09-01T01:19:12;98193.88;;;15.38;86.38
65756;BME280;52489;47.502;18.940;2022-09-01T01:20:41;98191.44;;;15.33;86.23
65756;BME280;52489;47.502;18.940;2022-09-01T01:22:05;98192.66;;;15.56;85.89
65756;BME280;52489;47.502;18.940;2022-09-01T01:23:53;98190.09;;;15.47;84.96
65756;BME280;52489;47.502;18.940;2022-09-01T01:24:59;98193.38;;;15.44;83.12
65756;BME280;52489;47.502;18.940;2022-09-01T01:26:05;98197.09;;;15.22;85.66
65756;BME280;52489;47.502;18.940;2022-09-01T01:27:09;98204.56;;;15.41;85.89
65756;BME280;52489;47.502;18.940;2022-09-01T01:28:18;98204.28;;;15.55;85.87
65756;BME280;52489;47.502;18.940;2022-09-01T01:29:21;98201.13;;;15.41;85.89
65756;BME280;52489;47.502;18.940;2022-09-01T01:30:25;98201.13;;;15.41;85.49
65756;BME280;52489;47.502;18.940;2022-09-01T01:31:29;98199.47;;;15.36;84.95
65756;BME280;52489;47.502;18.940;2022-09-01T01:32:34;98198.38;;;15.37;85.06
65756;BME280;52489;47.502;18.940;2022-09-01T01:33:49;98205.00;;;15.43;85.70
65756;BME280;52489;47.502;18.940;2022-09-01T01:34:52;98205.59;;;15.28;88.10
65756;BME280;52489;47.502;18.940;2022-09-01T01:35:56;98199.16;;;15.38;87.10
65756;BME280;52489;47.502;18.940;2022-09-01T01:36:59;98199.53;;;15.48;85.98
65756;BME280;52489;47.502;18.940;2022-09-01T01:38:03;98191.69;;;15.40;87.37
65756;BME280;52489;47.502;18.940;2022-09-01T01:39:27;98203.72;;;15.29;87.18
65756;BME280;52489;47.502;18.940;2022-09-01T01:40:30;98201.47;;;15.18;87.90
65756;BME280;52489;47.502;18.940;2022-09-01T01:41:34;98202.44;;;15.35;88.53
65756;BME280;52489;47.502;18.940;2022-09-01T01:42:37;98205.81;;;15.44;86.16
65756;BME280;52489;47.502;18.940;2022-09-01T01:43:40;98201.47;;;15.39;85.36
65756;BME280;52489;47.502;18.940;2022-09-01T01:44:43;98196.97;;;15.19;86.30
65756;BME280;52489;47.502;18.940;2022-09-01T01:45:50;98199.53;;;15.28;85.53
65756;BME280;52489;47.502;18.940;2022-09-01T01:46:54;98201.06;;;15.29;84.34
65756;BME280;52489;47.502;18.940;2022-09-01T01:47:58;98194.91;;;15.45;85.27
65756;BME280;52489;47.502;18.940;2022-09-01T01:49:03;98192.97;;;15.34;85.23
65756;BME280;52489;47.502;18.940;2022-09-01T01:50:06;98191.91;;;15.05;86.15
65756;BME280;52489;47.502;18.940;2022-09-01T01:51:10;98191.19;;;14.96;85.88
65756;BME280;52489;47.502;18.940;2022-09-01T01:52:15;98184.81;;;15.06;87.10
65756;BME280;52489;47.502;18.940;2022-09-01T01:53:19;98188.75;;;15.20;85.41
65756;BME280;52489;47.502;18.940;2022-09-01T01:54:23;98180.13;;;15.32;85.25
65756;BME280;52489;47.502;18.940;2022-09-01T01:55:27;98184.94;;;15.09;86.33
65756;BME280;52489;47.502;18.940;2022-09-01T01:56:33;98184.59;;;14.81;87.38
65756;BME280;52489;47.502;18.940;2022-09-01T01:57:41;98180.94;;;15.03;86.51
65756;BME280;52489;47.502;18.940;2022-09-01T01:58:52;98185.34;;;14.90;86.73
65756;BME280;52489;47.502;18.940;2022-09-01T01:59:56;98181.47;;;14.88;87.47
65756;BME280;52489;47.502;18.940;2022-09-01T02:00:59;98175.72;;;14.94;86.82
65756;BME280;52489;47.502;18.940;2022-09-01T02:02:02;98178.94;;;15.21;85.82
65756;BME280;52489;47.502;18.940;2022-09-01T02:03:12;98175.06;;;14.97;86.30
65756;BME280;52489;47.502;18.940;2022-09-01T02:04:19;98171.28;;;14.77;87.28
65756;BME280;52489;47.502;18.940;2022-09-01T02:05:26;98172.78;;;14.87;87.38
65756;BME280;52489;47.502;18.940;2022-09-01T02:06:32;98169.66;;;14.94;86.52
65756;BME280;52489;47.502;18.940;2022-09-01T02:07:36;98168.69;;;14.98;86.40
65756;BME280;52489;47.502;18.940;2022-09-01T02:08:41;98162.66;;;14.98;87.35
65756;BME280;52489;47.502;18.940;2022-09-01T02:09:45;98161.09;;;14.97;87.34
65756;BME280;52489;47.502;18.940;2022-09-01T02:10:51;98155.38;;;14.95;85.52
65756;BME280;52489;47.502;18.940;2022-09-01T02:11:54;98150.34;;;15.02;85.70
65756;BME280;52489;47.502;18.940;2022-09-01T02:12:59;98151.50;;;14.92;87.38
65756;BME280;52489;47.502;18.940;2022-09-01T02:14:09;98151.03;;;14.90;86.29
65756;BME280;52489;47.502;18.940;2022-09-01T02:15:15;98155.16;;;14.79;86.52
65756;BME280;52489;47.502;18.940;2022-09-01T02:16:18;98149.47;;;14.68;87.66
65756;BME280;52489;47.502;18.940;2022-09-01T02:17:22;98148.63;;;14.85;86.75
65756;BME280;52489;47.502;18.940;2022-09-01T02:18:35;98155.44;;;14.86;87.24
65756;BME280;52489;47.502;18.940;2022-09-01T02:19:39;98160.53;;;14.91;86.64
65756;BME280;52489;47.502;18.940;2022-09-01T02:20:45;98159.28;;;14.89;87.26
65756;BME280;52489;47.502;18.940;2022-09-01T02:21:52;98166.19;;;14.72;87.38
65756;BME280;52489;47.502;18.940;2022-09-01T02:22:58;98157.22;;;14.73;87.77
65756;BME280;52489;47.502;18.940;2022-09-01T02:24:13;98170.56;;;14.68;89.25
65756;BME280;52489;47.502;18.940;2022-09-01T02:25:21;98163.56;;;14.72;89.49
65756;BME280;52489;47.502;18.940;2022-09-01T02:26:28;98157.16;;;14.52;88.68
65756;BME280;52489;47.502;18.940;2022-09-01T02:27:33;98156.66;;;14.59;89.28
65756;BME280;52489;47.502;18.940;2022-09-01T02:28:39;98164.66;;;14.71;89.49
65756;BME280;52489;47.502;18.940;2022-09-01T02:29:43;98161.81;;;14.55;90.74
65756;BME280;52489;47.502;18.940;2022-09-01T02:30:49;98161.19;;;14.50;89.50
65756;BME280;52489;47.502;18.940;2022-09-01T02:31:55;98164.50;;;14.76;87.87
65756;BME280;52489;47.502;18.940;2022-09-01T02:32:59;98177.59;;;14.64;87.68
65756;BME280;52489;47.502;18.940;2022-09-01T02:34:02;98161.75;;;14.64;86.49
65756;BME280;52489;47.502;18.940;2022-09-01T02:35:05;98168.88;;;14.64;87.61
65756;BME280;52489;47.502;18.940;2022-09-01T02:36:14;98169.13;;;14.79;87.52
65756;BME280;52489;47.502;18.940;2022-09-01T02:37:18;98170.03;;;14.84;87.23
65756;BME280;52489;47.502;18.940;2022-09-01T02:38:27;98173.34;;;14.72;86.43
65756;BME280;52489;47.502;18.940;2022-09-01T02:39:31;98158.69;;;14.53;88.28
65756;BME280;52489;47.502;18.940;2022-09-01T02:40:37;98154.41;;;14.70;86.42
65756;BME280;52489;47.502;18.940;2022-09-01T02:41:43;98164.69;;;14.63;86.68
65756;BME280;52489;47.502;18.940;2022-09-01T02:42:46;98158.03;;;14.65;87.08
65756;BME280;52489;47.502;18.940;2022-09-01T02:43:49;98154.94;;;14.63;86.33
65756;BME280;52489;47.502;18.940;2022-09-01T02:44:53;98156.84;;;14.54;86.11
65756;BME280;52489;47.502;18.940;2022-09-01T02:46:00;98146.63;;;14.52;85.78
65756;BME280;52489;47.502;18.940;2022-09-01T02:47:08;98147.16;;;14.67;86.02
65756;BME280;52489;47.502;18.940;2022-09-01T02:48:11;98154.28;;;14.66;85.89
65756;BME280;52489;47.502;18.940;2022-09-01T02:49:20;98152.16;;;14.60;85.94
65756;BME280;52489;47.502;18.940;2022-09-01T02:50:30;98150.78;;;14.53;87.50
65756;BME280;52489;47.502;18.940;2022-09-01T02:51:35;98153.09;;;14.55;87.22
65756;BME280;52489;47.502;18.940;2022-09-01T02:52:39;98156.37;;;14.43;86.43
65756;BME280;52489;47.502;18.940;2022-09-01T02:53:44;98149.56;;;14.42;87.10
65756;BME280;52489;47.502;18.940;2022-09-01T02:54:51;98142.00;;;14.41;86.78
65756;BME280;52489;47.502;18.940;2022-09-01T02:55:55;98141.78;;;14.46;86.71
65756;BME280;52489;47.502;18.940;2022-09-01T02:57:00;98137.75;;;14.48;86.55
65756;BME280;52489;47.502;18.940;2022-09-01T02:58:05;98135.25;;;14.61;86.37
65756;BME280;52489;47.502;18.940;2022-09-01T02:59:15;98125.66;;;14.56;85.62
65756;BME280;52489;47.502;18.940;2022-09-01T03:00:18;98118.56;;;14.39;85.36
65756;BME280;52489;47.502;18.940;2022-09-01T03:01:41;98120.16;;;14.31;85.66
65756;BME280;52489;47.502;18.940;2022-09-01T03:02:48;98113.91;;;14.45;85.38
65756;BME280;52489;47.502;18.940;2022-09-01T03:03:55;98121.16;;;14.56;85.09
65756;BME280;52489;47.502;18.940;2022-09-01T03:04:58;98117.94;;;14.42;84.95
65756;BME280;52489;47.502;18.940;2022-09-01T03:06:01;98126.47;;;14.39;84.63
65756;BME280;52489;47.502;18.940;2022-09-01T03:07:05;98126.44;;;14.56;84.94
65756;BME280;52489;47.502;18.940;2022-09-01T03:08:10;98133.00;;;14.42;86.32
65756;BME280;52489;47.502;18.940;2022-09-01T03:09:17;98123.50;;;14.49;85.40
65756;BME280;52489;47.502;18.940;2022-09-01T03:10:21;98127.38;;;14.52;84.74
65756;BME280;52489;47.502;18.940;2022-09-01T03:11:29;98124.38;;;14.24;86.31
65756;BME280;52489;47.502;18.940;2022-09-01T03:12:33;98129.94;;;14.31;85.76
65756;BME280;52489;47.502;18.940;2022-09-01T03:13:37;98121.16;;;14.48;85.25
65756;BME280;52489;47.502;18.940;2022-09-01T03:14:41;98126.19;;;14.41;86.07
65756;BME280;52489;47.502;18.940;2022-09-01T03:15:44;98120.56;;;14.42;86.12
65756;BME280;52489;47.502;18.940;2022-09-01T03:16:47;98127.53;;;14.47;85.96
65756;BME280;52489;47.502;18.940;2022-09-01T03:17:50;98131.28;;;14.37;86.03
65756;BME280;52489;47.502;18.940;2022-09-01T03:18:53;98127.03;;;14.24;86.19
65756;BME280;52489;47.502;18.940;2022-09-01T03:19:56;98131.50;;;14.32;85.88
65756;BME280;52489;47.502;18.940;2022-09-01T03:21:02;98137.66;;;14.36;85.14
65756;BME280;52489;47.502;18.940;2022-09-01T03:22:05;98136.31;;;14.21;85.73
65756;BME280;52489;47.502;18.940;2022-09-01T03:23:10;98136.78;;;14.23;87.15
65756;BME280;52489;47.502;18.940;2022-09-01T03:24:21;98134.50;;;14.13;86.17
65756;BME280;52489;47.502;18.940;2022-09-01T03:25:24;98145.00;;;14.22;86.63
65756;BME280;52489;47.502;18.940;2022-09-01T03:26:27;98147.56;;;14.39;85.64
65756;BME280;52489;47.502;18.940;2022-09-01T03:27:29;98149.81;;;14.20;87.02
65756;BME280;52489;47.502;18.940;2022-09-01T03:28:32;98154.53;;;13.97;88.04
65756;BME280;52489;47.502;18.940;2022-09-01T03:29:35;98170.13;;;14.10;87.02
65756;BME280;52489;47.502;18.940;2022-09-01T03:30:46;98174.78;;;14.14;87.60
65756;BME280;52489;47.502;18.940;2022-09-01T03:31:50;98180.63;;;14.28;86.95
65756;BME280;52489;47.502;18.940;2022-09-01T03:32:53;98187.75;;;14.27;88.11
65756;BME280;52489;47.502;18.940;2022-09-01T03:33:56;98188.53;;;14.28;88.39
65756;BME280;52489;47.502;18.940;2022-09-01T03:34:58;98191.62;;;14.30;88.94
65756;BME280;52489;47.502;18.940;2022-09-01T03:36:02;98193.78;;;14.37;87.96
65756;BME280;52489;47.502;18.940;2022-09-01T03:37:06;98188.19;;;14.38;88.56
65756;BME280;52489;47.502;18.940;2022-09-01T03:38:10;98181.81;;;14.39;87.88
65756;BME280;52489;47.502;18.940;2022-09-01T03:39:16;98188.94;;;14.47;87.32
65756;BME280;52489;47.502;18.940;2022-09-01T03:40:19;98182.16;;;14.38;87.74
65756;BME280;52489;47.502;18.940;2022-09-01T03:41:25;98178.66;;;14.16;90.62
65756;BME280;52489;47.502;18.940;2022-09-01T03:42:29;98178.00;;;14.19;91.25
65756;BME280;52489;47.502;18.940;2022-09-01T03:43:33;98176.09;;;14.37;90.31
65756;BME280;52489;47.502;18.940;2022-09-01T03:44:37;98166.97;;;14.34;89.96
65756;BME280;52489;47.502;18.940;2022-09-01T03:45:42;98158.09;;;14.39;89.80
65756;BME280;52489;47.502;18.940;2022-09-01T03:46:47;98159.97;;;14.39;89.93
65756;BME280;52489;47.502;18.940;2022-09-01T03:47:53;98153.62;;;14.31;89.17
65756;BME280;52489;47.502;18.940;2022-09-01T03:48:57;98153.25;;;14.11;89.80
65756;BME280;52489;47.502;18.940;2022-09-01T03:50:14;98156.78;;;14.24;88.89
65756;BME280;52489;47.502;18.940;2022-09-01T03:51:22;98149.81;;;14.20;88.55
65756;BME280;52489;47.502;18.940;2022-09-01T03:52:25;98142.69;;;14.20;87.97
65756;BME280;52489;47.502;18.940;2022-09-01T03:53:33;98152.34;;;14.46;88.12
65756;BME280;52489;47.502;18.940;2022-09-01T03:54:39;98143.53;;;14.42;88.05
65756;BME280;52489;47.502;18.940;2022-09-01T03:55:44;98145.28;;;14.29;88.45
65756;BME280;52489;47.502;18.940;2022-09-01T03:56:47;98150.56;;;14.29;88.93
65756;BME280;52489;47.502;18.940;2022-09-01T03:57:55;98147.41;;;14.44;87.96
65756;BME280;52489;47.502;18.940;2022-09-01T03:58:59;98141.63;;;14.51;87.31
65756;BME280;52489;47.502;18.940;2022-09-01T04:00:09;98134.84;;;14.41;86.34
65756;BME280;52489;47.502;18.940;2022-09-01T04:01:22;98137.81;;;14.31;87.25
65756;BME280;52489;47.502;18.940;2022-09-01T04:02:26;98133.19;;;14.28;87.55
65756;BME280;52489;47.502;18.940;2022-09-01T04:03:32;98132.47;;;14.19;86.84
65756;BME280;52489;47.502;18.940;2022-09-01T04:04:37;98135.75;;;14.07;87.62
65756;BME280;52489;47.502;18.940;2022-09-01T04:05:43;98129.31;;;14.25;87.82
65756;BME280;52489;47.502;18.940;2022-09-01T04:06:47;98134.19;;;14.15;88.64
65756;BME280;52489;47.502;18.940;2022-09-01T04:07:50;98131.09;;;14.13;88.71
65756;BME280;52489;47.502;18.940;2022-09-01T04:08:53;98132.00;;;14.17;89.17
65756;BME280;52489;47.502;18.940;2022-09-01T04:09:58;98145.28;;;14.29;88.79
65756;BME280;52489;47.502;18.940;2022-09-01T04:11:08;98136.66;;;14.20;88.62
65756;BME280;52489;47.502;18.940;2022-09-01T04:12:11;98140.22;;;14.15;88.93
65756;BME280;52489;47.502;18.940;2022-09-01T04:13:29;98136.19;;;14.18;88.71
65756;BME280;52489;47.502;18.940;2022-09-01T04:14:33;98139.09;;;14.25;88.81
65756;BME280;52489;47.502;18.940;2022-09-01T04:15:37;98140.53;;;14.14;89.13
65756;BME280;52489;47.502;18.940;2022-09-01T04:16:42;98132.63;;;14.14;89.88
65756;BME280;52489;47.502;18.940;2022-09-01T04:18:04;98130.34;;;14.03;90.13
65756;BME280;52489;47.502;18.940;2022-09-01T04:19:33;98135.16;;;13.93;90.36
65756;BME280;52489;47.502;18.940;2022-09-01T04:20:40;98130.12;;;14.26;89.14
65756;BME280;52489;47.502;18.940;2022-09-01T04:21:54;98127.25;;;14.01;90.24
65756;BME280;52489;47.502;18.940;2022-09-01T04:22:58;98131.09;;;14.13;91.33
65756;BME280;52489;47.502;18.940;2022-09-01T04:24:01;98123.03;;;14.09;91.56
65756;BME280;52489;47.502;18.940;2022-09-01T04:25:07;98121.78;;;14.15;91.28
65756;BME280;52489;47.502;18.940;2022-09-01T04:26:12;98122.09;;;14.14;90.76
65756;BME280;52489;47.502;18.940;2022-09-01T04:27:22;98130.44;;;14.16;90.67
65756;BME280;52489;47.502;18.940;2022-09-01T04:28:32;98125.19;;;14.16;89.93
65756;BME280;52489;47.502;18.940;2022-09-01T04:29:37;98115.38;;;14.25;88.87
65756;BME280;52489;47.502;18.940;2022-09-01T04:30:40;98122.88;;;14.14;89.61
65756;BME280;52489;47.502;18.940;2022-09-01T04:31:48;98125.69;;;14.09;89.58
65756;BME280;52489;47.502;18.940;2022-09-01T04:32:55;98110.00;;;14.13;89.41
65756;BME280;52489;47.502;18.940;2022-09-01T04:33:58;98127.69;;;14.12;88.94
65756;BME280;52489;47.502;18.940;2022-09-01T04:35:01;98118.94;;;13.91;88.22
65756;BME280;52489;47.502;18.940;2022-09-01T04:36:25;98123.06;;;14.00;89.29
65756;BME280;52489;47.502;18.940;2022-09-01T04:37:29;98127.06;;;14.06;88.16
65756;BME280;52489;47.502;18.940;2022-09-01T04:38:32;98126.91;;;14.11;87.92
65756;BME280;52489;47.502;18.940;2022-09-01T04:39:41;98128.19;;;14.05;88.04
65756;BME280;52489;47.502;18.940;2022-09-01T04:40:54;98123.50;;;14.11;88.73
65756;BME280;52489;47.502;18.940;2022-09-01T04:41:58;98124.72;;;14.14;89.09
65756;BME280;52489;47.502;18.940;2022-09-01T04:43:01;98130.16;;;14.17;88.99
65756;BME280;52489;47.502;18.940;2022-09-01T04:44:05;98120.72;;;14.07;88.78
65756;BME280;52489;47.502;18.940;2022-09-01T04:45:08;98126.00;;;13.99;89.00
65756;BME280;52489;47.502;18.940;2022-09-01T04:46:14;98129.62;;;13.85;91.19
65756;BME280;52489;47.502;18.940;2022-09-01T04:47:17;98123.28;;;13.78;90.90
65756;BME280;52489;47.502;18.940;2022-09-01T04:48:21;98131.16;;;13.78;89.95
65756;BME280;52489;47.502;18.940;2022-09-01T04:49:26;98134.00;;;13.73;90.47
65756;BME280;52489;47.502;18.940;2022-09-01T04:50:35;98124.97;;;13.82;89.67
65756;BME280;52489;47.502;18.940;2022-09-01T04:51:41;98121.81;;;14.06;89.33
65756;BME280;52489;47.502;18.940;2022-09-01T04:52:45;98125.87;;;13.95;88.52
65756;BME280;52489;47.502;18.940;2022-09-01T04:53:49;98119.19;;;13.98;87.91
65756;BME280;52489;47.502;18.940;2022-09-01T04:54:54;98132.22;;;14.03;89.59
65756;BME280;52489;47.502;18.940;2022-09-01T04:56:02;98128.19;;;13.97;89.84
65756;BME280;52489;47.502;18.940;2022-09-01T04:57:05;98127.09;;;13.98;90.39
65756;BME280;52489;47.502;18.940;2022-09-01T04:58:10;98131.63;;;13.88;89.92
65756;BME280;52489;47.502;18.940;2022-09-01T04:59:22;98134.72;;;13.91;90.09
65756;BME280;52489;47.502;18.940;2022-09-01T05:00:26;98135.16;;;13.93;91.21
65756;BME280;52489;47.502;18.940;2022-09-01T05:01:34;98130.06;;;13.96;89.42
65756;BME280;52489;47.502;18.940;2022-09-01T05:02:55;98134.41;;;13.92;89.42
65756;BME280;52489;47.502;18.940;2022-09-01T05:04:05;98138.59;;;13.93;91.50
65756;BME280;52489;47.502;18.940;2022-09-01T05:05:08;98144.00;;;13.97;90.45
65756;BME280;52489;47.502;18.940;2022-09-01T05:06:16;98141.53;;;13.83;91.74
65756;BME280;52489;47.502;18.940;2022-09-01T05:07:19;98145.44;;;13.68;93.09
65756;BME280;52489;47.502;18.940;2022-09-01T05:08:28;98140.16;;;13.77;91.56
65756;BME280;52489;47.502;18.940;2022-09-01T05:09:35;98144.94;;;13.83;89.89
65756;BME280;52489;47.502;18.940;2022-09-01T05:10:44;98147.75;;;13.78;89.74
65756;BME280;52489;47.502;18.940;2022-09-01T05:11:48;98148.34;;;13.84;89.73
65756;BME280;52489;47.502;18.940;2022-09-01T05:12:52;98155.47;;;13.83;90.38
65756;BME280;52489;47.502;18.940;2022-09-01T05:13:55;98150.41;;;13.70;92.37
65756;BME280;52489;47.502;18.940;2022-09-01T05:14:59;98153.97;;;13.56;93.47
65756;BME280;52489;47.502;18.940;2022-09-01T05:16:09;98161.38;;;13.72;93.49
65756;BME280;52489;47.502;18.940;2022-09-01T05:17:15;98156.75;;;13.60;94.53
65756;BME280;52489;47.502;18.940;2022-09-01T05:18:19;98156.44;;;13.70;93.84
65756;BME280;52489;47.502;18.940;2022-09-01T05:19:29;98160.16;;;13.69;94.23
65756;BME280;52489;47.502;18.940;2022-09-01T05:20:32;98165.75;;;13.59;94.87
65756;BME280;52489;47.502;18.940;2022-09-01T05:21:36;98158.59;;;13.85;94.45
65756;BME280;52489;47.502;18.940;2022-09-01T05:22:40;98155.94;;;13.94;94.16
65756;BME280;52489;47.502;18.940;2022-09-01T05:23:44;98158.09;;;13.92;93.13
65756;BME280;52489;47.502;18.940;2022-09-01T05:24:47;98155.31;;;13.88;94.09
65756;BME280;52489;47.502;18.940;2022-09-01T05:25:56;98151.78;;;13.84;93.25
65756;BME280;52489;47.502;18.940;2022-09-01T05:26:59;98150.34;;;13.96;93.22
65756;BME280;52489;47.502;18.940;2022-09-01T05:28:02;98153.44;;;13.98;93.94
65756;BME280;52489;47.502;18.940;2022-09-01T05:29:06;98150.81;;;13.98;94.02
65756;BME280;52489;47.502;18.940;2022-09-01T05:30:29;98148.41;;;13.67;92.89
65756;BME280;52489;47.502;18.940;2022-09-01T05:31:32;98146.78;;;14.00;91.99
65756;BME280;52489;47.502;18.940;2022-09-01T05:32:39;98145.34;;;14.11;91.66
65756;BME280;52489;47.502;18.940;2022-09-01T05:33:43;98151.78;;;13.76;92.90
65756;BME280;52489;47.502;18.940;2022-09-01T05:34:47;98153.81;;;13.61;95.14
65756;BME280;52489;47.502;18.940;2022-09-01T05:35:57;98148.41;;;13.58;96.37
65756;BME280;52489;47.502;18.940;2022-09-01T05:37:04;98150.41;;;13.70;96.45
65756;BME280;52489;47.502;18.940;2022-09-01T05:38:09;98155.50;;;13.66;94.50
65756;BME280;52489;47.502;18.940;2022-09-01T05:39:14;98154.09;;;13.69;96.03
65756;BME280;52489;47.502;18.940;2022-09-01T05:40:17;98164.16;;;13.84;95.38
65756;BME280;52489;47.502;18.940;2022-09-01T05:41:20;98164.00;;;13.80;97.10
65756;BME280;52489;47.502;18.940;2022-09-01T05:42:25;98159.84;;;13.79;95.67
65756;BME280;52489;47.502;18.940;2022-09-01T05:43:31;98168.97;;;13.82;95.19
65756;BME280;52489;47.502;18.940;2022-09-01T05:44:35;98162.09;;;13.98;95.63
65756;BME280;52489;47.502;18.940;2022-09-01T05:45:41;98173.00;;;13.88;93.44